Time;durP1;ratioP1;P1;durP2;ratioP2;P2;SDS_P1;SDS_P2;PMS_P1;PMS_P2;Temp;Humidity;BMP_temperature;BMP_pressure;BME280_temperature;BME280_humidity;BME280_pressure;Samples;Min_cycle;Max_cycle;Signal;HPM_P1;HPM_P2
2023/05/23 00:00:35;;;;;;;;;34.25;29.00;;;;;-147.17;100.00;-15917.19;5045390;27;51827;-53
2023/05/23 00:03:01;;;;;;;;;29.75;27.50;;;;;-147.17;100.00;-15917.19;5027623;27;51427;-52
2023/05/23 00:05:28;;;;;;;;;25.50;24.75;;;;;-147.17;100.00;-15917.19;5042808;27;53274;-51
2023/05/23 00:07:53;;;;;;;;;25.50;24.25;;;;;-147.17;100.00;-15917.19;5047874;27;51724;-52
2023/05/23 00:10:19;;;;;;;;;31.00;28.50;;;;;-147.17;100.00;-15917.19;5042104;27;53391;-52
2023/05/23 00:12:46;;;;;;;;;30.75;29.25;;;;;-147.17;100.00;-15917.19;5045466;27;51588;-51
2023/05/23 00:15:12;;;;;;;;;24.75;23.25;;;;;-147.17;100.00;-15917.19;5040741;27;51330;-53
2023/05/23 00:17:38;;;;;;;;;27.25;26.00;;;;;-147.17;100.00;-15917.19;5045484;27;51419;-52
2023/05/23 00:20:04;;;;;;;;;25.00;24.50;;;;;-147.17;100.00;-15917.19;5044444;27;51595;-53
2023/05/23 00:22:30;;;;;;;;;28.75;25.50;;;;;-147.17;100.00;-15917.19;5042599;27;51846;-52
2023/05/23 00:24:56;;;;;;;;;26.75;25.50;;;;;-147.17;100.00;-15917.19;5043498;27;52552;-52
2023/05/23 00:27:22;;;;;;;;;28.50;28.00;;;;;-147.17;100.00;-15917.19;5043187;27;51137;-54
2023/05/23 00:29:47;;;;;;;;;26.00;25.25;;;;;-147.17;100.00;-15917.19;5043565;27;51387;-53
2023/05/23 00:32:12;;;;;;;;;27.25;26.25;;;;;-147.17;100.00;-15917.19;5048935;27;51293;-52
2023/05/23 00:34:38;;;;;;;;;27.00;26.50;;;;;-147.17;100.00;-15917.19;5049834;27;53006;-53
2023/05/23 00:37:03;;;;;;;;;36.00;32.00;;;;;-147.17;100.00;-15917.19;5050035;27;54494;-52
2023/05/23 00:39:29;;;;;;;;;28.00;27.00;;;;;-147.17;100.00;-15917.19;5043623;27;52954;-52
2023/05/23 00:41:55;;;;;;;;;27.75;26.00;;;;;-147.17;100.00;-15917.19;5050002;27;51314;-50
2023/05/23 00:44:20;;;;;;;;;28.50;26.25;;;;;-147.17;100.00;-15917.19;5048491;27;51862;-52
2023/05/23 00:46:51;;;;;;;;;25.50;24.75;;;;;-147.17;100.00;-15917.19;5048677;27;52862;-54
2023/05/23 00:49:18;;;;;;;;;22.75;21.50;;;;;-147.17;100.00;-15917.19;5044437;27;51728;-51
2023/05/23 00:51:45;;;;;;;;;23.25;21.75;;;;;-147.17;100.00;-15917.19;5049526;27;53567;-52
2023/05/23 00:54:11;;;;;;;;;26.25;24.25;;;;;-147.17;100.00;-15917.19;5045639;27;51905;-53
2023/05/23 00:56:37;;;;;;;;;24.25;23.50;;;;;-147.17;100.00;-15917.19;5049780;27;51876;-52
2023/05/23 00:59:03;;;;;;;;;27.25;24.50;;;;;-147.17;100.00;-15917.19;5046043;27;51259;-53
2023/05/23 01:01:29;;;;;;;;;26.25;23.50;;;;;-147.17;100.00;-15917.19;5048461;27;53259;-52
2023/05/23 01:03:55;;;;;;;;;26.25;26.25;;;;;-147.17;100.00;-15917.19;5047053;27;53736;-54
2023/05/23 01:06:21;;;;;;;;;25.00;23.75;;;;;-147.17;100.00;-15917.19;5046543;27;51347;-53
2023/05/23 01:08:46;;;;;;;;;24.50;23.50;;;;;-147.17;100.00;-15917.19;5047558;27;53209;-54
2023/05/23 01:11:26;;;;;;;;;26.50;25.00;;;;;-147.17;100.00;-15917.19;5047098;27;51616;-54
2023/05/23 01:14:00;;;;;;;;;28.50;27.75;;;;;-147.17;100.00;-15917.19;5048787;27;51249;-54
2023/05/23 01:16:47;;;;;;;;;25.50;23.75;;;;;-147.17;100.00;-15917.19;5050662;27;51401;-54
2023/05/23 01:19:50;;;;;;;;;29.50;25.75;;;;;-147.17;100.00;-15917.19;5031221;27;52453;-54
2023/05/23 01:22:38;;;;;;;;;29.25;26.50;;;;;-147.17;100.00;-15917.19;5049573;27;51387;-53
2023/05/23 01:25:16;;;;;;;;;28.50;26.00;;;;;-147.17;100.00;-15917.19;5046547;27;51607;-53
2023/05/23 01:28:13;;;;;;;;;26.75;24.75;;;;;-147.17;100.00;-15917.19;5027737;27;51676;-54
2023/05/23 01:30:40;;;;;;;;;25.25;25.00;;;;;-147.17;100.00;-15917.19;5027294;27;51454;-52
2023/05/23 01:33:08;;;;;;;;;25.75;25.00;;;;;-147.17;100.00;-15917.19;5047306;27;51210;-53
2023/05/23 01:35:35;;;;;;;;;28.50;28.50;;;;;-147.17;100.00;-15917.19;5045509;27;51448;-54
2023/05/23 01:38:00;;;;;;;;;26.50;25.00;;;;;-147.17;100.00;-15917.19;5049667;27;53792;-55
2023/05/23 01:40:26;;;;;;;;;25.50;24.50;;;;;-147.17;100.00;-15917.19;5049670;27;51989;-54
2023/05/23 01:42:54;;;;;;;;;25.50;23.50;;;;;-147.17;100.00;-15917.19;5045439;27;51345;-53
2023/05/23 01:45:20;;;;;;;;;26.00;24.25;;;;;-147.17;100.00;-15917.19;5045754;27;51242;-54
2023/05/23 01:47:49;;;;;;;;;24.00;23.00;;;;;-147.17;100.00;-15917.19;5046787;27;53586;-52
2023/05/23 01:50:15;;;;;;;;;25.00;22.25;;;;;-147.17;100.00;-15917.19;5047478;27;53563;-54
2023/05/23 01:52:41;;;;;;;;;28.50;25.00;;;;;-147.17;100.00;-15917.19;5044788;27;53317;-53
2023/05/23 01:55:08;;;;;;;;;28.00;25.00;;;;;-147.17;100.00;-15917.19;5044494;27;52964;-54
2023/05/23 01:57:36;;;;;;;;;22.75;21.50;;;;;-147.17;100.00;-15917.19;5050231;27;51399;-53
2023/05/23 02:00:07;;;;;;;;;25.75;24.25;;;;;-147.17;100.00;-15917.19;5043260;27;52642;-53
2023/05/23 02:02:32;;;;;;;;;18.00;16.50;;;;;-147.17;100.00;-15917.19;5045711;27;51388;-54
2023/05/23 02:04:58;;;;;;;;;26.75;24.25;;;;;-147.17;100.00;-15917.19;5048495;27;51869;-54
2023/05/23 02:07:23;;;;;;;;;24.00;23.00;;;;;-147.17;100.00;-15917.19;5048458;27;51390;-54
2023/05/23 02:09:49;;;;;;;;;26.50;25.25;;;;;-147.17;100.00;-15917.19;5045207;27;53095;-54
2023/05/23 02:12:14;;;;;;;;;21.00;20.25;;;;;-147.17;100.00;-15917.19;5045586;27;51928;-52
2023/05/23 02:14:41;;;;;;;;;27.75;27.50;;;;;-147.17;100.00;-15917.19;5045907;27;51893;-54
2023/05/23 02:17:08;;;;;;;;;22.75;21.50;;;;;-147.17;100.00;-15917.19;5044690;27;52920;-55
2023/05/23 02:19:34;;;;;;;;;26.75;26.00;;;;;-147.17;100.00;-15917.19;5027164;27;52837;-54
2023/05/23 02:21:59;;;;;;;;;27.75;26.50;;;;;-147.17;100.00;-15917.19;5048265;27;51164;-54
2023/05/23 02:24:24;;;;;;;;;35.00;27.25;;;;;-147.17;100.00;-15917.19;5046977;27;51822;-52
2023/05/23 02:26:50;;;;;;;;;28.50;27.75;;;;;-147.17;100.00;-15917.19;5047988;27;51404;-54
2023/05/23 02:29:15;;;;;;;;;31.00;26.75;;;;;-147.17;100.00;-15917.19;5045347;27;53487;-53
2023/05/23 02:31:40;;;;;;;;;29.00;27.50;;;;;-147.17;100.00;-15917.19;5047375;27;51743;-54
2023/05/23 02:34:06;;;;;;;;;25.75;24.25;;;;;-147.17;100.00;-15917.19;5047333;27;51156;-53
2023/05/23 02:36:32;;;;;;;;;31.75;29.00;;;;;-147.17;100.00;-15917.19;5054635;27;52092;-51
2023/05/23 02:38:57;;;;;;;;;31.75;30.00;;;;;-147.17;100.00;-15917.19;5046960;27;51767;-53
2023/05/23 02:41:22;;;;;;;;;25.00;23.25;;;;;-147.17;100.00;-15917.19;5046936;27;51159;-54
2023/05/23 02:43:48;;;;;;;;;28.00;26.25;;;;;-147.17;100.00;-15917.19;5046722;27;52427;-53
2023/05/23 02:46:13;;;;;;;;;28.25;25.75;;;;;-147.17;100.00;-15917.19;5049459;27;53150;-52
2023/05/23 02:48:38;;;;;;;;;28.25;26.50;;;;;-147.17;100.00;-15917.19;5046929;27;53225;-52
2023/05/23 02:51:04;;;;;;;;;23.00;21.00;;;;;-147.17;100.00;-15917.19;5043015;27;51831;-51
2023/05/23 02:53:29;;;;;;;;;26.00;24.25;;;;;-147.17;100.00;-15917.19;5045488;27;53266;-54
2023/05/23 02:55:54;;;;;;;;;25.50;24.50;;;;;-147.17;100.00;-15917.19;5048776;27;51967;-53
2023/05/23 02:58:20;;;;;;;;;25.50;24.50;;;;;-147.17;100.00;-15917.19;5030596;27;53178;-53
2023/05/23 03:00:45;;;;;;;;;25.25;24.25;;;;;-147.17;100.00;-15917.19;5047101;27;51215;-52
2023/05/23 03:03:10;;;;;;;;;29.25;26.50;;;;;-147.17;100.00;-15917.19;5048669;27;52947;-52
2023/05/23 03:05:36;;;;;;;;;24.25;24.00;;;;;-147.17;100.00;-15917.19;5049263;27;51346;-52
2023/05/23 03:08:01;;;;;;;;;28.75;27.25;;;;;-147.17;100.00;-15917.19;5045128;27;52755;-52
2023/05/23 03:10:27;;;;;;;;;26.00;23.00;;;;;-147.17;100.00;-15917.19;5045126;27;51715;-51
2023/05/23 03:12:52;;;;;;;;;28.00;27.00;;;;;-147.17;100.00;-15917.19;5050100;27;51533;-52
2023/05/23 03:15:18;;;;;;;;;28.00;26.75;;;;;-147.17;100.00;-15917.19;5052409;27;51166;-52
2023/05/23 03:17:43;;;;;;;;;31.50;30.75;;;;;-147.17;100.00;-15917.19;5050866;27;52653;-53
2023/05/23 03:20:09;;;;;;;;;31.75;30.25;;;;;-147.17;100.00;-15917.19;5048821;27;51903;-53
2023/05/23 03:22:35;;;;;;;;;26.00;24.00;;;;;-147.17;100.00;-15917.19;5050212;27;51250;-54
2023/05/23 03:25:01;;;;;;;;;25.75;25.25;;;;;-147.17;100.00;-15917.19;5056559;27;51290;-52
2023/05/23 03:27:26;;;;;;;;;29.25;26.50;;;;;-147.17;100.00;-15917.19;5052071;27;52327;-54
2023/05/23 03:29:51;;;;;;;;;28.50;24.25;;;;;-147.17;100.00;-15917.19;5068536;28;51156;-53
2023/05/23 03:32:17;;;;;;;;;28.25;28.25;;;;;-147.17;100.00;-15917.19;5068181;27;51100;-54
2023/05/23 03:34:42;;;;;;;;;26.25;22.00;;;;;-147.17;100.00;-15917.19;5068948;28;51307;-51
2023/05/23 03:37:07;;;;;;;;;30.75;30.25;;;;;-147.17;100.00;-15917.19;5067624;28;51895;-53
2023/05/23 03:39:33;;;;;;;;;31.50;29.75;;;;;-147.17;100.00;-15917.19;5067242;28;51282;-54
2023/05/23 03:41:58;;;;;;;;;32.00;29.50;;;;;-147.17;100.00;-15917.19;5065997;27;52911;-52
2023/05/23 03:44:23;;;;;;;;;32.00;30.00;;;;;-147.17;100.00;-15917.19;5068674;28;51384;-51
2023/05/23 03:46:49;;;;;;;;;27.75;26.00;;;;;-147.17;100.00;-15917.19;5065244;27;51624;-52
2023/05/23 03:49:14;;;;;;;;;33.75;31.50;;;;;-147.17;100.00;-15917.19;5066744;27;51239;-54
2023/05/23 03:51:39;;;;;;;;;34.50;32.25;;;;;-147.17;100.00;-15917.19;5068582;28;51143;-54
2023/05/23 03:54:05;;;;;;;;;29.75;28.25;;;;;-147.17;100.00;-15917.19;5066093;28;51576;-53
2023/05/23 03:56:30;;;;;;;;;30.50;28.25;;;;;-147.17;100.00;-15917.19;5065108;27;51907;-54
2023/05/23 03:58:56;;;;;;;;;31.50;28.00;;;;;-147.17;100.00;-15917.19;5068324;28;51320;-51
2023/05/23 04:01:21;;;;;;;;;26.25;25.25;;;;;-147.17;100.00;-15917.19;5068278;28;51433;-52
2023/05/23 04:03:47;;;;;;;;;27.00;26.50;;;;;-147.17;100.00;-15917.19;5068054;28;51443;-52
2023/05/23 04:06:13;;;;;;;;;33.50;30.50;;;;;-147.17;100.00;-15917.19;5066375;27;51195;-51
2023/05/23 04:08:40;;;;;;;;;33.00;30.25;;;;;-147.17;100.00;-15917.19;5067416;28;51258;-52
2023/05/23 04:11:06;;;;;;;;;28.00;26.75;;;;;-147.17;100.00;-15917.19;5066944;28;51138;-52
2023/05/23 04:13:32;;;;;;;;;37.50;31.00;;;;;-147.17;100.00;-15917.19;5068080;28;51128;-52
2023/05/23 04:16:00;;;;;;;;;32.00;30.25;;;;;-147.17;100.00;-15917.19;5066681;28;51520;-53
2023/05/23 04:18:27;;;;;;;;;30.50;27.25;;;;;-147.17;100.00;-15917.19;5067454;28;51486;-54
2023/05/23 04:20:53;;;;;;;;;33.25;31.25;;;;;-147.17;100.00;-15917.19;5066719;28;51169;-54
2023/05/23 04:23:18;;;;;;;;;28.00;27.50;;;;;-147.17;100.00;-15917.19;5066648;28;51053;-54
2023/05/23 04:25:44;;;;;;;;;35.00;29.25;;;;;-147.17;100.00;-15917.19;5066256;27;51310;-54
2023/05/23 04:28:10;;;;;;;;;26.75;26.75;;;;;-147.17;100.00;-15917.19;5065664;28;51142;-53
2023/05/23 04:30:36;;;;;;;;;31.50;30.25;;;;;-147.17;100.00;-15917.19;5067104;28;51164;-52
2023/05/23 04:33:01;;;;;;;;;32.75;29.00;;;;;-147.17;100.00;-15917.19;5067073;28;51650;-53
2023/05/23 04:35:32;;;;;;;;;30.00;28.75;;;;;-147.17;100.00;-15917.19;5067092;28;54608;-53
2023/05/23 04:37:58;;;;;;;;;29.00;26.75;;;;;-147.17;100.00;-15917.19;5066199;28;51227;-53
2023/05/23 04:40:23;;;;;;;;;30.50;30.25;;;;;-147.17;100.00;-15917.19;5064716;27;51188;-53
2023/05/23 04:42:50;;;;;;;;;27.25;26.00;;;;;-147.17;100.00;-15917.19;5066264;28;53074;-52
2023/05/23 04:45:16;;;;;;;;;30.75;27.75;;;;;-147.17;100.00;-15917.19;5066783;28;52720;-54
2023/05/23 04:47:43;;;;;;;;;26.75;24.25;;;;;-147.17;100.00;-15917.19;5048050;28;51210;-52
2023/05/23 04:50:09;;;;;;;;;20.25;19.75;;;;;-147.17;100.00;-15917.19;5065597;27;51220;-52
2023/05/23 04:52:35;;;;;;;;;26.25;21.50;;;;;-147.17;100.00;-15917.19;5065198;27;51120;-53
2023/05/23 04:55:01;;;;;;;;;27.75;26.50;;;;;-147.17;100.00;-15917.19;5066421;28;53285;-52
2023/05/23 04:57:26;;;;;;;;;28.25;26.50;;;;;-147.17;100.00;-15917.19;5065941;28;51448;-51
2023/05/23 04:59:51;;;;;;;;;29.00;26.50;;;;;-147.17;100.00;-15917.19;5065133;27;51447;-53
2023/05/23 05:02:17;;;;;;;;;24.25;22.00;;;;;-147.17;100.00;-15917.19;5066582;27;51449;-51
2023/05/23 05:04:43;;;;;;;;;27.25;25.50;;;;;-147.17;100.00;-15917.19;5066488;27;51668;-52
2023/05/23 05:07:08;;;;;;;;;25.75;24.75;;;;;-147.17;100.00;-15917.19;5064011;27;51237;-53
2023/05/23 05:09:33;;;;;;;;;27.75;27.00;;;;;-147.17;100.00;-15917.19;5066190;27;51116;-51
2023/05/23 05:11:59;;;;;;;;;26.25;25.50;;;;;-147.17;100.00;-15917.19;5067051;28;53499;-53
2023/05/23 05:14:26;;;;;;;;;28.75;26.25;;;;;-147.17;100.00;-15917.19;5066142;28;53600;-50
2023/05/23 05:16:51;;;;;;;;;25.50;25.00;;;;;-147.17;100.00;-15917.19;5064834;28;51258;-53
2023/05/23 05:19:16;;;;;;;;;28.50;26.75;;;;;-147.17;100.00;-15917.19;5066596;27;51152;-54
2023/05/23 05:21:42;;;;;;;;;19.50;19.50;;;;;-147.17;100.00;-15917.19;5066180;28;51236;-54
2023/05/23 05:24:08;;;;;;;;;27.25;23.00;;;;;-147.17;100.00;-15917.19;5064591;28;51254;-52
2023/05/23 05:26:35;;;;;;;;;21.00;20.00;;;;;-147.17;100.00;-15917.19;5066324;27;51261;-54
2023/05/23 05:29:01;;;;;;;;;21.75;20.50;;;;;-147.17;100.00;-15917.19;5066429;28;51252;-51
2023/05/23 05:31:26;;;;;;;;;27.25;22.75;;;;;-147.17;100.00;-15917.19;5064251;27;51357;-54
2023/05/23 05:33:51;;;;;;;;;23.75;21.75;;;;;-147.17;100.00;-15917.19;5065237;28;51904;-53
2023/05/23 05:36:18;;;;;;;;;22.25;21.75;;;;;-147.17;100.00;-15917.19;5057244;27;51150;-53
2023/05/23 05:38:44;;;;;;;;;22.25;20.50;;;;;-147.17;100.00;-15917.19;5063933;28;51154;-51
2023/05/23 05:41:09;;;;;;;;;23.00;22.75;;;;;-147.17;100.00;-15917.19;5064059;28;51183;-51
2023/05/23 05:43:35;;;;;;;;;21.50;20.75;;;;;-147.17;100.00;-15917.19;5064435;28;51164;-51
2023/05/23 05:46:00;;;;;;;;;22.25;21.00;;;;;-147.17;100.00;-15917.19;5062906;27;51162;-56
2023/05/23 05:48:25;;;;;;;;;20.00;20.00;;;;;-147.17;100.00;-15917.19;5064242;28;51158;-55
2023/05/23 05:50:51;;;;;;;;;24.25;22.00;;;;;-147.17;100.00;-15917.19;5062858;28;51228;-54
2023/05/23 05:53:16;;;;;;;;;23.50;21.50;;;;;-147.17;100.00;-15917.19;5061499;27;51834;-52
2023/05/23 05:55:42;;;;;;;;;23.75;21.50;;;;;-147.17;100.00;-15917.19;5064572;28;51262;-52
2023/05/23 05:58:07;;;;;;;;;20.00;19.50;;;;;-147.17;100.00;-15917.19;5064204;27;51310;-54
2023/05/23 06:00:33;;;;;;;;;18.00;18.00;;;;;-147.17;100.00;-15917.19;5064086;28;51274;-52
2023/05/23 06:02:59;;;;;;;;;22.00;22.00;;;;;-147.17;100.00;-15917.19;5059497;27;52706;-54
2023/05/23 06:05:25;;;;;;;;;20.75;20.50;;;;;-147.17;100.00;-15917.19;5063522;28;51358;-54
2023/05/23 06:07:51;;;;;;;;;19.00;18.00;;;;;-147.17;100.00;-15917.19;5064562;28;51243;-52
2023/05/23 06:10:16;;;;;;;;;22.75;22.75;;;;;-147.17;100.00;-15917.19;5064137;28;51278;-52
2023/05/23 06:12:42;;;;;;;;;22.50;21.00;;;;;-147.17;100.00;-15917.19;5060640;28;51788;-53
2023/05/23 06:15:13;;;;;;;;;23.00;21.00;;;;;-147.17;100.00;-15917.19;5064492;28;51286;-54
2023/05/23 06:17:38;;;;;;;;;18.50;17.75;;;;;-147.17;100.00;-15917.19;5046913;28;52772;-53
2023/05/23 06:20:04;;;;;;;;;20.00;19.00;;;;;-147.17;100.00;-15917.19;5064090;28;51224;-52
2023/05/23 06:22:30;;;;;;;;;18.50;17.75;;;;;-147.17;100.00;-15917.19;5042460;28;53885;-52
2023/05/23 06:24:55;;;;;;;;;18.00;17.25;;;;;-147.17;100.00;-15917.19;5064197;27;51158;-54
2023/05/23 06:27:20;;;;;;;;;19.50;19.50;;;;;-147.17;100.00;-15917.19;5063286;28;54453;-51
2023/05/23 06:29:45;;;;;;;;;20.75;20.00;;;;;-147.17;100.00;-15917.19;5062128;28;51288;-52
2023/05/23 06:32:11;;;;;;;;;22.75;21.75;;;;;-147.17;100.00;-15917.19;5063648;28;51902;-53
2023/05/23 06:34:36;;;;;;;;;20.25;19.50;;;;;-147.17;100.00;-15917.19;5065229;28;51409;-53
2023/05/23 06:37:02;;;;;;;;;18.50;18.25;;;;;-147.17;100.00;-15917.19;5064896;28;51205;-53
2023/05/23 06:39:27;;;;;;;;;18.50;18.00;;;;;-147.17;100.00;-15917.19;5064527;28;51211;-53
2023/05/23 06:41:53;;;;;;;;;25.75;24.50;;;;;-147.17;100.00;-15917.19;5058476;28;51918;-53
2023/05/23 06:44:18;;;;;;;;;21.75;19.50;;;;;-147.17;100.00;-15917.19;5062362;28;51322;-51
2023/05/23 06:46:46;;;;;;;;;22.00;20.75;;;;;-147.17;100.00;-15917.19;5062153;28;51133;-52
2023/05/23 06:49:12;;;;;;;;;19.75;18.50;;;;;-147.17;100.00;-15917.19;5061922;28;51378;-54
2023/05/23 06:51:38;;;;;;;;;25.25;23.25;;;;;-147.17;100.00;-15917.19;5064828;28;51213;-53
2023/05/23 06:54:03;;;;;;;;;20.75;18.25;;;;;-147.17;100.00;-15917.19;5062219;27;51259;-54
2023/05/23 06:56:29;;;;;;;;;21.25;20.25;;;;;-147.17;100.00;-15917.19;5065010;28;51298;-53
2023/05/23 06:58:55;;;;;;;;;19.50;18.25;;;;;-147.17;100.00;-15917.19;5062514;27;51277;-50
2023/05/23 07:01:21;;;;;;;;;23.50;21.50;;;;;-147.17;100.00;-15917.19;5063856;28;51246;-54
2023/05/23 07:03:46;;;;;;;;;19.50;18.50;;;;;-147.17;100.00;-15917.19;5064205;28;51432;-54
2023/05/23 07:06:12;;;;;;;;;20.50;18.75;;;;;-147.17;100.00;-15917.19;5059921;28;55339;-54
2023/05/23 07:08:38;;;;;;;;;27.25;24.00;;;;;-147.17;100.00;-15917.19;5063092;28;51412;-55
2023/05/23 07:11:05;;;;;;;;;17.25;16.00;;;;;-147.17;100.00;-15917.19;5064394;27;52009;-54
2023/05/23 07:13:30;;;;;;;;;22.00;19.75;;;;;-147.17;100.00;-15917.19;5064354;28;51384;-55
2023/05/23 07:15:55;;;;;;;;;21.25;20.00;;;;;-147.17;100.00;-15917.19;5064069;28;51204;-53
2023/05/23 07:18:22;;;;;;;;;22.00;21.50;;;;;-147.17;100.00;-15917.19;5062111;28;51038;-53
2023/05/23 07:20:48;;;;;;;;;26.00;25.75;;;;;-147.17;100.00;-15917.19;5064360;28;51308;-54
2023/05/23 07:23:14;;;;;;;;;22.00;20.50;;;;;-147.17;100.00;-15917.19;5063165;28;53467;-54
2023/05/23 07:25:41;;;;;;;;;26.50;24.75;;;;;-147.17;100.00;-15917.19;5064319;28;51306;-54
2023/05/23 07:28:07;;;;;;;;;28.50;26.75;;;;;-147.17;100.00;-15917.19;5062398;28;51353;-58
2023/05/23 07:30:32;;;;;;;;;27.50;24.75;;;;;-147.17;100.00;-15917.19;5062797;28;53615;-55
2023/05/23 07:32:57;;;;;;;;;27.00;25.50;;;;;-147.17;100.00;-15917.19;5064201;28;51261;-55
2023/05/23 07:35:25;;;;;;;;;26.50;25.00;;;;;-147.17;100.00;-15917.19;5044406;28;51190;-55
2023/05/23 07:37:51;;;;;;;;;25.25;24.50;;;;;-147.17;100.00;-15917.19;5062762;28;51296;-55
2023/05/23 07:40:16;;;;;;;;;27.25;25.50;;;;;-147.17;100.00;-15917.19;5058823;28;52057;-55
2023/05/23 07:42:42;;;;;;;;;25.75;24.75;;;;;-147.17;100.00;-15917.19;5063565;28;51206;-54
2023/05/23 07:45:07;;;;;;;;;27.25;24.00;;;;;-147.17;100.00;-15917.19;5062370;28;51174;-52
2023/05/23 07:47:32;;;;;;;;;28.00;23.75;;;;;-147.17;100.00;-15917.19;5063585;28;53461;-54
2023/05/23 07:50:01;;;;;;;;;27.25;25.00;;;;;-147.17;100.00;-15917.19;5062487;28;51217;-54
2023/05/23 07:52:27;;;;;;;;;29.25;27.75;;;;;-147.17;100.00;-15917.19;5062169;28;51636;-53
2023/05/23 07:54:52;;;;;;;;;30.00;25.50;;;;;-147.17;100.00;-15917.19;5064063;28;51334;-55
2023/05/23 07:57:18;;;;;;;;;27.00;25.75;;;;;-147.17;100.00;-15917.19;5064027;28;52393;-56
2023/05/23 07:59:43;;;;;;;;;25.25;24.25;;;;;-147.17;100.00;-15917.19;5065956;28;53681;-55
2023/05/23 08:02:08;;;;;;;;;22.50;21.00;;;;;-147.17;100.00;-15917.19;5043884;28;54305;-54
2023/05/23 08:04:34;;;;;;;;;21.25;20.25;;;;;-147.17;100.00;-15917.19;5049480;28;51353;-53
2023/05/23 08:07:00;;;;;;;;;19.25;18.75;;;;;-147.17;100.00;-15917.19;5067217;28;51165;-54
2023/05/23 08:09:25;;;;;;;;;18.25;18.00;;;;;-147.17;100.00;-15917.19;5064365;28;51509;-55
2023/05/23 08:11:51;;;;;;;;;18.75;17.50;;;;;-147.17;100.00;-15917.19;5065946;28;51151;-55
2023/05/23 08:14:16;;;;;;;;;19.25;18.00;;;;;-147.17;100.00;-15917.19;5066431;28;53706;-55
2023/05/23 08:16:41;;;;;;;;;25.00;22.00;;;;;-147.17;100.00;-15917.19;5066673;28;51415;-55
2023/05/23 08:19:07;;;;;;;;;24.25;23.00;;;;;-147.17;100.00;-15917.19;5048567;28;51455;-53
2023/05/23 08:21:33;;;;;;;;;21.50;20.50;;;;;-147.17;100.00;-15917.19;5066328;28;53574;-52
2023/05/23 08:23:58;;;;;;;;;24.50;23.50;;;;;-147.17;100.00;-15917.19;5066780;28;51364;-53
2023/05/23 08:26:25;;;;;;;;;22.25;20.25;;;;;-147.17;100.00;-15917.19;5061916;27;51241;-54
2023/05/23 08:28:50;;;;;;;;;23.75;23.25;;;;;-147.17;100.00;-15917.19;5062031;27;53114;-54
2023/05/23 08:31:16;;;;;;;;;17.25;15.00;;;;;-147.17;100.00;-15917.19;5064435;28;53684;-56
2023/05/23 08:33:42;;;;;;;;;21.75;19.75;;;;;-147.17;100.00;-15917.19;5066180;28;51278;-56
2023/05/23 08:36:07;;;;;;;;;17.00;16.00;;;;;-147.17;100.00;-15917.19;5065143;28;51245;-54
2023/05/23 08:38:32;;;;;;;;;18.25;18.00;;;;;-147.17;100.00;-15917.19;5066098;28;51404;-55
2023/05/23 08:41:00;;;;;;;;;26.25;24.00;;;;;-147.17;100.00;-15917.19;5065698;28;51212;-53
2023/05/23 08:43:26;;;;;;;;;20.25;19.75;;;;;-147.17;100.00;-15917.19;5067061;28;51254;-53
2023/05/23 08:45:52;;;;;;;;;24.75;23.50;;;;;-147.17;100.00;-15917.19;5064396;28;51335;-53
2023/05/23 08:48:19;;;;;;;;;29.25;24.00;;;;;-147.17;100.00;-15917.19;5065253;28;51452;-53
2023/05/23 08:50:46;;;;;;;;;23.00;22.25;;;;;-147.17;100.00;-15917.19;5048226;28;51570;-54
2023/05/23 08:53:19;;;;;;;;;22.75;20.75;;;;;-147.17;100.00;-15917.19;5067243;28;51173;-54
2023/05/23 08:55:50;;;;;;;;;21.75;21.25;;;;;-147.17;100.00;-15917.19;5063362;28;51190;-54
2023/05/23 08:58:19;;;;;;;;;24.00;23.25;;;;;-147.17;100.00;-15917.19;5064982;28;53650;-54
2023/05/23 09:00:45;;;;;;;;;20.00;18.25;;;;;-147.17;100.00;-15917.19;5066348;28;51339;-55
2023/05/23 09:03:11;;;;;;;;;26.25;25.50;;;;;-147.17;100.00;-15917.19;5065833;28;51254;-52
2023/05/23 09:05:37;;;;;;;;;24.00;23.25;;;;;-147.17;100.00;-15917.19;5063661;28;51232;-54
2023/05/23 09:08:03;;;;;;;;;21.75;20.00;;;;;-147.17;100.00;-15917.19;5065115;28;51146;-54
2023/05/23 09:10:28;;;;;;;;;23.50;21.75;;;;;-147.17;100.00;-15917.19;5047198;28;51253;-53
2023/05/23 09:12:54;;;;;;;;;25.75;24.75;;;;;-147.17;100.00;-15917.19;5064724;28;51193;-54
2023/05/23 09:15:21;;;;;;;;;26.00;22.75;;;;;-147.17;100.00;-15917.19;5064837;28;51320;-55
2023/05/23 09:17:46;;;;;;;;;25.50;25.00;;;;;-147.17;100.00;-15917.19;5061264;28;53259;-55
2023/05/23 09:20:14;;;;;;;;;19.75;19.25;;;;;-147.17;100.00;-15917.19;5058295;27;51182;-57
2023/05/23 09:22:44;;;;;;;;;31.50;27.00;;;;;-147.17;100.00;-15917.19;5063604;27;51149;-55
2023/05/23 09:25:10;;;;;;;;;18.50;17.75;;;;;-147.17;100.00;-15917.19;5063090;28;51175;-52
2023/05/23 09:27:35;;;;;;;;;23.25;22.25;;;;;-147.17;100.00;-15917.19;5065055;28;51698;-53
2023/05/23 09:30:09;;;;;;;;;25.25;23.75;;;;;-147.17;100.00;-15917.19;5062093;28;51324;-54
2023/05/23 09:32:34;;;;;;;;;26.25;25.50;;;;;-147.17;100.00;-15917.19;5062584;28;51153;-52
2023/05/23 09:35:05;;;;;;;;;30.25;27.75;;;;;-147.17;100.00;-15917.19;5064361;28;51449;-52
2023/05/23 09:37:33;;;;;;;;;31.75;26.75;;;;;-147.17;100.00;-15917.19;5064638;28;51440;-51
2023/05/23 09:40:08;;;;;;;;;30.50;28.25;;;;;-147.17;100.00;-15917.19;5062671;28;51241;-52
2023/05/23 09:42:34;;;;;;;;;30.75;28.25;;;;;-147.17;100.00;-15917.19;5064083;28;51283;-50
2023/05/23 09:45:00;;;;;;;;;28.00;24.75;;;;;-147.17;100.00;-15917.19;5063666;28;51183;-51
2023/05/23 09:47:28;;;;;;;;;27.75;27.75;;;;;-147.17;100.00;-15917.19;5045035;28;54076;-53
2023/05/23 09:49:54;;;;;;;;;28.75;25.50;;;;;-147.17;100.00;-15917.19;5046272;28;51194;-52
2023/05/23 09:52:19;;;;;;;;;28.50;26.00;;;;;-147.17;100.00;-15917.19;5045329;28;53544;-51
2023/05/23 09:54:45;;;;;;;;;27.50;25.00;;;;;-147.17;100.00;-15917.19;5064468;28;51383;-52
2023/05/23 09:57:13;;;;;;;;;28.00;24.25;;;;;-147.17;100.00;-15917.19;5044223;28;53151;-54
2023/05/23 09:59:40;;;;;;;;;27.00;26.00;;;;;-147.17;100.00;-15917.19;5064315;28;51221;-54
2023/05/23 10:02:10;;;;;;;;;25.00;24.25;;;;;-147.17;100.00;-15917.19;5064850;28;51156;-53
2023/05/23 10:04:37;;;;;;;;;23.25;21.50;;;;;-147.17;100.00;-15917.19;5063991;28;51195;-54
2023/05/23 10:07:16;;;;;;;;;25.25;23.50;;;;;-147.17;100.00;-15917.19;5043919;28;51800;-54
2023/05/23 10:09:46;;;;;;;;;27.25;26.25;;;;;-147.17;100.00;-15917.19;5060414;28;51390;-51
2023/05/23 10:12:21;;;;;;;;;23.00;21.00;;;;;-147.17;100.00;-15917.19;5061778;27;51316;-53
2023/05/23 10:14:53;;;;;;;;;21.50;20.50;;;;;-147.17;100.00;-15917.19;5060648;27;51155;-52
2023/05/23 10:17:31;;;;;;;;;17.75;17.00;;;;;-147.17;100.00;-15917.19;5040621;28;52896;-52
2023/05/23 10:19:59;;;;;;;;;19.25;17.25;;;;;-147.17;100.00;-15917.19;5063923;27;53545;-54
2023/05/23 10:22:25;;;;;;;;;25.00;23.75;;;;;-147.17;100.00;-15917.19;5064185;28;53385;-53
2023/05/23 10:24:52;;;;;;;;;23.50;22.50;;;;;-147.17;100.00;-15917.19;5062655;28;53170;-53
2023/05/23 10:27:18;;;;;;;;;20.25;18.75;;;;;-147.17;100.00;-15917.19;5064353;28;51851;-54
2023/05/23 10:29:44;;;;;;;;;21.00;20.75;;;;;-147.17;100.00;-15917.19;5060929;28;51259;-53
2023/05/23 10:32:10;;;;;;;;;18.00;17.50;;;;;-147.17;100.00;-15917.19;5063233;28;51139;-54
2023/05/23 10:34:43;;;;;;;;;27.75;25.50;;;;;-147.17;100.00;-15917.19;5045409;28;51297;-53
2023/05/23 10:37:15;;;;;;;;;24.00;24.00;;;;;-147.17;100.00;-15917.19;5064048;28;51130;-54
2023/05/23 10:40:04;;;;;;;;;22.00;20.00;;;;;-147.17;100.00;-15917.19;5064996;28;53424;-55
2023/05/23 10:42:55;;;;;;;;;22.25;21.75;;;;;-147.17;100.00;-15917.19;5064341;28;51165;-53
2023/05/23 10:45:21;;;;;;;;;23.25;22.50;;;;;-147.17;100.00;-15917.19;5064520;28;51208;-54